Minneapolis, Minnesota
Traffic Map
Current Weather Conditions
Minneapolis, Minnesota
Broken Clouds
Broken Clouds
73°
Feels Like: 73°
Wind Chill: 73° Ceiling: 30000
Heat Index: 73° Visibility: 10mi
Dew Point: 63° Wind: 7mph
Humidity: 71% Direction: 130° (SE)
Pressure: 29.8in Gusts: 0mph
Raw Report DataKMSP 252153Z 13006KT 10SM FEW022 FEW110 BKN300 23/17 A2980 RMK AO2 RAB06E19 SLP087 TCU DSNT SW P0000 T02280172
Traffic Incident Summary
Active as of:
Severity:
Category:
InformationThere was an issue retrieving the traffic information for this location. Please try a different location or try again shortly.
Advertisements
Track Severe Weather on mobile